Jeppesen Weather report generated on Mon Jul 23 07:26:50 UTC 2018

TAF METAR Weather Report For FVHA FVBU FVFA FVCZ FVKB
ICAOREPORT DATA
FVHA
TAF_FC
FVHA 230400Z 2306/2412 14007KT CAVOK BECMG 2307/2309 9999 SCT020
FM231400 CAVOK=
FVHA
METAR
FVHA 230700Z 12015KT 9999 FEW015 13/05 Q1033 NOSIG=
FVBU
TAF_FC
TAF FVBU  230400Z 2306/2412 10010KT CAVOK=
FVBU
METAR
FVBU 230400Z 12009KT CAVOK 10/07 Q1032 NOSIG=
FVFA
TAF_FC
FVFA 230400Z 2306/2412 09013KT CAVOK=
FVFA
METAR
FVFA 230600Z 11006KT CAVOK 13/10 Q1029 NOSIG=
FVCZ
TAF_FC
NONE
FVCZ
METAR
FVCZ 230600Z 00000KT 9999 BKN012 16/14 Q1036=
FVKB
TAF_FC
NONE
FVKB
METAR
NONE